createdAt,value
2022-10-20T00:03:20.119Z,3.25
2022-10-20T00:08:35.439Z,6.57
2022-10-20T00:13:50.283Z,4.05
2022-10-20T00:19:05.336Z,3.47
2022-10-20T00:24:20.307Z,5.25
2022-10-20T00:29:35.316Z,3.58
2022-10-20T00:34:50.657Z,7.22
2022-10-20T00:40:06.588Z,5.57
2022-10-20T00:45:22.347Z,3.80
2022-10-20T00:50:37.321Z,4.47
2022-10-20T00:55:52.321Z,2.10
2022-10-20T01:01:07.656Z,3.25
2022-10-20T01:07:01.640Z,5.78
2022-10-20T01:12:17.736Z,5.03
2022-10-20T01:17:33.481Z,2.15
2022-10-20T01:22:49.277Z,3.58
2022-10-20T01:28:04.332Z,16.88
2022-10-20T01:33:19.328Z,3.53
2022-10-20T01:38:34.309Z,2.80
2022-10-20T01:43:49.319Z,3.30
2022-10-20T01:49:04.299Z,2.22
2022-10-20T01:54:19.312Z,5.28
2022-10-20T01:59:34.343Z,6.43
2022-10-20T02:04:49.598Z,7.55
2022-10-20T02:10:05.571Z,10.52
2022-10-20T02:15:22.536Z,13.13
2022-10-20T02:20:38.292Z,13.70
2022-10-20T02:25:53.062Z,14.40
2022-10-20T02:31:12.644Z,15.82
2022-10-20T02:36:28.321Z,17.85
2022-10-20T02:41:43.282Z,19.88
2022-10-20T02:46:58.305Z,19.20
2022-10-20T02:52:13.292Z,19.08
2022-10-20T02:57:28.315Z,19.55
2022-10-20T03:02:43.090Z,16.05
2022-10-20T03:07:58.290Z,17.77
2022-10-20T03:13:13.380Z,15.02
2022-10-20T03:18:28.616Z,9.88
2022-10-20T03:23:44.610Z,13.85
2022-10-20T03:29:00.310Z,13.05
2022-10-20T03:34:15.129Z,27.75
2022-10-20T03:39:30.314Z,20.85
2022-10-20T03:44:45.602Z,18.33
2022-10-20T03:50:01.377Z,34.17
2022-10-20T03:55:16.286Z,23.45
2022-10-20T04:00:31.368Z,19.15
2022-10-20T04:05:46.606Z,36.08
2022-10-20T04:11:02.381Z,37.13
2022-10-20T04:16:17.369Z,25.67
2022-10-20T04:21:32.374Z,20.52
2022-10-20T04:26:47.442Z,20.83
2022-10-20T04:32:02.312Z,19.00
2022-10-20T04:37:17.376Z,15.30
2022-10-20T04:42:32.645Z,16.45
2022-10-20T04:47:48.372Z,18.25
2022-10-20T04:53:03.678Z,14.75
2022-10-20T04:58:19.339Z,16.58
2022-10-20T05:03:34.662Z,14.82
2022-10-20T05:08:50.367Z,12.60
2022-10-20T05:14:05.322Z,10.43
2022-10-20T05:19:20.311Z,9.68
2022-10-20T05:24:35.370Z,12.02
2022-10-20T05:29:50.357Z,10.38
2022-10-20T05:35:05.338Z,10.88
2022-10-20T05:40:20.342Z,10.15
2022-10-20T05:45:35.313Z,9.38
2022-10-20T05:50:50.710Z,9.93
2022-10-20T05:56:06.308Z,10.95
2022-10-20T06:01:21.545Z,9.60
2022-10-20T06:06:37.432Z,10.38
2022-10-20T06:11:52.850Z,9.40
2022-10-20T06:17:08.319Z,10.00
2022-10-20T06:22:23.282Z,7.22
2022-10-20T06:27:38.419Z,7.72
2022-10-20T06:32:53.394Z,6.18
2022-10-20T06:38:08.358Z,5.10
2022-10-20T06:43:24.324Z,7.72
2022-10-20T06:48:40.328Z,6.72
2022-10-20T06:53:55.339Z,5.60
2022-10-20T06:59:10.604Z,8.90
2022-10-20T07:04:26.308Z,5.22
2022-10-20T07:09:41.679Z,6.43
2022-10-20T07:14:57.588Z,3.92
2022-10-20T07:20:13.318Z,6.18
2022-10-20T07:25:28.322Z,5.43
2022-10-20T07:30:43.371Z,5.43
2022-10-20T07:35:58.297Z,5.55
2022-10-20T07:41:13.077Z,4.00
2022-10-20T07:46:28.386Z,6.88
2022-10-20T07:51:43.440Z,5.55
2022-10-20T07:56:58.705Z,5.72
2022-10-20T08:02:14.604Z,5.68
2022-10-20T08:07:30.367Z,4.95
2022-10-20T08:12:45.325Z,3.88
2022-10-20T08:18:00.874Z,3.88
2022-10-20T08:23:16.632Z,4.53
2022-10-20T08:28:32.328Z,6.63
2022-10-20T08:33:52.144Z,5.32
2022-10-20T08:39:09.568Z,5.10
2022-10-20T08:44:24.351Z,4.05
2022-10-20T08:49:39.436Z,4.88
2022-10-20T08:54:55.536Z,6.68
2022-10-20T09:00:10.330Z,5.82
2022-10-20T09:05:25.304Z,5.72
2022-10-20T09:10:40.639Z,7.38
2022-10-20T09:15:56.354Z,4.47
2022-10-20T09:21:11.349Z,4.03
2022-10-20T09:26:44.986Z,5.43
2022-10-20T09:32:16.694Z,5.63
2022-10-20T09:37:36.422Z,5.00
2022-10-20T09:42:51.360Z,4.97
2022-10-20T09:48:06.397Z,3.58
2022-10-20T09:53:21.341Z,5.80
2022-10-20T09:58:36.612Z,4.07
2022-10-20T10:03:52.323Z,4.65
2022-10-20T10:09:07.881Z,5.68
2022-10-20T10:14:23.340Z,4.00
2022-10-20T10:19:38.449Z,4.40
2022-10-20T10:24:53.670Z,6.75
2022-10-20T10:30:09.370Z,4.43
2022-10-20T10:35:24.816Z,4.25
2022-10-20T10:40:40.680Z,3.45
2022-10-20T10:45:56.409Z,3.38
2022-10-20T10:51:11.314Z,3.72
2022-10-20T10:56:26.341Z,5.75
2022-10-20T11:01:41.633Z,3.70
2022-10-20T11:06:58.191Z,7.40
2022-10-20T11:12:13.345Z,5.95
2022-10-20T11:17:28.350Z,4.43
2022-10-20T11:22:43.410Z,5.38
2022-10-20T11:27:58.447Z,5.45
2022-10-20T11:33:14.447Z,3.35
2022-10-20T11:38:29.707Z,4.90
2022-10-20T11:43:45.332Z,3.50
2022-10-20T11:49:03.948Z,5.40
2022-10-20T11:54:19.366Z,4.95
2022-10-20T11:59:34.416Z,8.25
2022-10-20T12:04:49.363Z,5.90
2022-10-20T12:10:04.373Z,4.43
2022-10-20T12:15:19.856Z,8.13
2022-10-20T12:20:35.349Z,4.63
2022-10-20T12:25:50.339Z,5.47
2022-10-20T12:31:05.732Z,4.45
2022-10-20T12:36:21.578Z,7.15
2022-10-20T12:41:37.643Z,6.47
2022-10-20T12:46:53.674Z,4.22
2022-10-20T12:52:09.366Z,5.32
2022-10-20T12:57:24.131Z,7.15
2022-10-20T13:02:39.243Z,3.97
2022-10-20T13:07:54.376Z,4.75
2022-10-20T13:13:09.393Z,5.30
2022-10-20T13:18:24.354Z,6.88
2022-10-20T13:23:39.406Z,4.60
2022-10-20T13:28:54.424Z,4.90
2022-10-20T13:34:09.324Z,5.10
2022-10-20T13:39:24.361Z,5.00
2022-10-20T13:44:39.340Z,6.80
2022-10-20T13:49:54.336Z,6.03
2022-10-20T13:55:09.355Z,7.63
2022-10-20T14:00:24.393Z,10.98
2022-10-20T14:05:39.386Z,8.30
2022-10-20T14:10:54.436Z,5.32
2022-10-20T14:16:09.125Z,5.30
2022-10-20T14:21:24.670Z,5.85
2022-10-20T14:26:40.394Z,5.32
2022-10-20T14:31:55.722Z,6.55
2022-10-20T14:37:11.460Z,4.72
2022-10-20T14:42:26.378Z,5.95
2022-10-20T14:47:41.359Z,6.47
2022-10-20T14:52:56.364Z,10.13
2022-10-20T14:58:11.383Z,4.72
2022-10-20T15:03:26.441Z,6.95
2022-10-20T15:08:41.498Z,10.00
2022-10-20T15:13:56.379Z,63.15
2022-10-20T15:19:11.174Z,75.05
2022-10-20T15:24:26.362Z,75.53
2022-10-20T15:29:41.407Z,71.82
2022-10-20T15:34:56.212Z,56.72
2022-10-20T15:40:11.398Z,66.93
2022-10-20T15:45:26.422Z,50.97
2022-10-20T15:50:41.390Z,45.05
2022-10-20T15:55:56.359Z,36.28
2022-10-20T16:01:11.443Z,35.60
2022-10-20T16:06:26.360Z,35.72
2022-10-20T16:11:41.264Z,38.72
2022-10-20T16:16:58.679Z,26.63
2022-10-20T16:22:14.376Z,26.42
2022-10-20T16:27:29.365Z,20.42
2022-10-20T16:32:44.672Z,27.40
2022-10-20T16:38:00.220Z,24.27
2022-10-20T16:43:15.400Z,21.63
2022-10-20T16:48:30.415Z,16.95
2022-10-20T16:53:45.702Z,17.42
2022-10-20T16:59:01.394Z,19.17
2022-10-20T17:04:17.702Z,12.73
2022-10-20T17:09:33.365Z,19.02
2022-10-20T17:14:48.191Z,13.13
2022-10-20T17:20:04.345Z,11.40
2022-10-20T17:25:19.390Z,17.60
2022-10-20T17:30:34.130Z,15.30
2022-10-20T17:35:49.437Z,13.50
2022-10-20T17:41:04.409Z,18.33
2022-10-20T17:46:19.372Z,13.27
2022-10-20T17:51:34.990Z,16.33
2022-10-20T17:56:50.435Z,15.93
2022-10-20T18:02:05.664Z,13.35
2022-10-20T18:07:22.356Z,12.50
2022-10-20T18:12:37.300Z,16.50
2022-10-20T18:17:52.429Z,12.68
2022-10-20T18:23:07.395Z,9.32
2022-10-20T18:28:22.386Z,10.30
2022-10-20T18:33:37.386Z,10.73
2022-10-20T18:38:52.411Z,11.40
2022-10-20T18:44:07.717Z,13.60
2022-10-20T18:49:23.856Z,12.68
2022-10-20T18:54:39.386Z,10.38
2022-10-20T18:59:54.731Z,12.40
2022-10-20T19:05:10.663Z,16.40
2022-10-20T19:10:26.411Z,11.48
2022-10-20T19:15:41.367Z,10.63
2022-10-20T19:20:56.397Z,14.05
2022-10-20T19:26:12.725Z,13.63
2022-10-20T19:31:28.369Z,11.35
2022-10-20T19:36:43.127Z,9.88
2022-10-20T19:41:58.721Z,8.93
2022-10-20T19:47:14.439Z,8.25
2022-10-20T19:52:29.711Z,7.60
2022-10-20T19:57:45.673Z,8.35
2022-10-20T20:03:01.147Z,7.85
2022-10-20T20:08:16.709Z,10.38
2022-10-20T20:13:32.475Z,9.45
2022-10-20T20:18:47.470Z,9.38
2022-10-20T20:24:02.377Z,7.50
2022-10-20T20:29:17.423Z,9.23
2022-10-20T20:34:32.383Z,6.15
2022-10-20T20:39:47.365Z,9.48
2022-10-20T20:45:02.393Z,7.97
2022-10-20T20:50:17.370Z,7.53
2022-10-20T20:55:32.219Z,5.78
2022-10-20T21:00:47.491Z,7.55
2022-10-20T21:06:02.414Z,10.25
2022-10-20T21:11:17.745Z,6.88
2022-10-20T21:16:33.397Z,6.55
2022-10-20T21:21:48.401Z,9.98
2022-10-20T21:27:03.460Z,7.55
2022-10-20T21:32:18.425Z,5.57
2022-10-20T21:37:33.418Z,6.28
2022-10-20T21:42:48.737Z,5.97
2022-10-20T21:48:04.448Z,6.25
2022-10-20T21:53:19.413Z,7.38
2022-10-20T21:58:34.655Z,8.27
2022-10-20T22:03:50.136Z,7.70
2022-10-20T22:09:05.586Z,5.97
2022-10-20T22:14:20.782Z,6.43
2022-10-20T22:19:36.392Z,7.03
2022-10-20T22:24:51.442Z,10.95
2022-10-20T22:30:07.674Z,8.40
2022-10-20T22:35:23.442Z,6.85
2022-10-20T22:40:38.468Z,7.65
2022-10-20T22:45:53.736Z,8.73
2022-10-20T22:51:09.385Z,7.32
2022-10-20T22:56:24.403Z,13.02
2022-10-20T23:01:39.390Z,9.95
2022-10-20T23:06:54.399Z,11.50
2022-10-20T23:12:09.373Z,8.20
2022-10-20T23:17:24.653Z,11.55
2022-10-20T23:22:39.457Z,8.13
2022-10-20T23:27:54.426Z,9.65
2022-10-20T23:33:09.405Z,8.98
2022-10-20T23:38:24.671Z,6.00
2022-10-20T23:43:40.384Z,8.48
2022-10-20T23:48:55.406Z,6.50
2022-10-20T23:54:10.430Z,13.05
2022-10-20T23:59:25.424Z,9.73
